sensor_id;sensor_type;location;lat;lon;timestamp;temperature;humidity
33073;DHT22;19432;48.946;8.846;2022-08-19T00:01:48;23.30;88.30
33073;DHT22;19432;48.946;8.846;2022-08-19T00:04:16;23.30;88.30
33073;DHT22;19432;48.946;8.846;2022-08-19T00:06:44;23.30;88.20
33073;DHT22;19432;48.946;8.846;2022-08-19T00:09:12;23.30;88.20
33073;DHT22;19432;48.946;8.846;2022-08-19T00:11:39;23.30;88.30
33073;DHT22;19432;48.946;8.846;2022-08-19T00:14:07;23.30;88.40
33073;DHT22;19432;48.946;8.846;2022-08-19T00:16:34;23.30;88.40
33073;DHT22;19432;48.946;8.846;2022-08-19T00:19:00;23.30;88.50
33073;DHT22;19432;48.946;8.846;2022-08-19T00:21:26;23.30;88.50
33073;DHT22;19432;48.946;8.846;2022-08-19T00:23:53;23.30;88.70
33073;DHT22;19432;48.946;8.846;2022-08-19T00:26:19;23.30;88.90
33073;DHT22;19432;48.946;8.846;2022-08-19T00:28:45;23.20;88.80
33073;DHT22;19432;48.946;8.846;2022-08-19T00:31:11;23.20;88.70
33073;DHT22;19432;48.946;8.846;2022-08-19T00:33:37;23.20;88.90
33073;DHT22;19432;48.946;8.846;2022-08-19T00:36:06;23.20;88.90
33073;DHT22;19432;48.946;8.846;2022-08-19T00:38:34;23.20;88.90
33073;DHT22;19432;48.946;8.846;2022-08-19T00:40:59;23.10;88.90
33073;DHT22;19432;48.946;8.846;2022-08-19T00:43:26;23.20;89.10
33073;DHT22;19432;48.946;8.846;2022-08-19T00:45:53;23.10;89.10
33073;DHT22;19432;48.946;8.846;2022-08-19T00:48:19;23.10;89.30
33073;DHT22;19432;48.946;8.846;2022-08-19T00:50:47;23.10;89.50
33073;DHT22;19432;48.946;8.846;2022-08-19T00:53:16;23.10;89.70
33073;DHT22;19432;48.946;8.846;2022-08-19T00:55:49;23.10;89.70
33073;DHT22;19432;48.946;8.846;2022-08-19T00:58:21;23.10;89.70
33073;DHT22;19432;48.946;8.846;2022-08-19T01:00:49;23.10;89.70
33073;DHT22;19432;48.946;8.846;2022-08-19T01:03:19;23.00;89.80
33073;DHT22;19432;48.946;8.846;2022-08-19T01:05:46;23.00;90.00
33073;DHT22;19432;48.946;8.846;2022-08-19T01:08:14;23.10;90.00
33073;DHT22;19432;48.946;8.846;2022-08-19T01:10:43;23.00;90.00
33073;DHT22;19432;48.946;8.846;2022-08-19T01:13:11;23.00;90.00
33073;DHT22;19432;48.946;8.846;2022-08-19T01:15:43;23.00;90.00
33073;DHT22;19432;48.946;8.846;2022-08-19T01:18:12;23.00;90.30
33073;DHT22;19432;48.946;8.846;2022-08-19T01:20:40;23.00;90.10
33073;DHT22;19432;48.946;8.846;2022-08-19T01:23:07;23.00;90.00
33073;DHT22;19432;48.946;8.846;2022-08-19T01:25:41;22.90;90.00
33073;DHT22;19432;48.946;8.846;2022-08-19T01:28:07;23.00;90.00
33073;DHT22;19432;48.946;8.846;2022-08-19T01:30:35;22.90;90.00
33073;DHT22;19432;48.946;8.846;2022-08-19T01:33:02;22.90;90.00
33073;DHT22;19432;48.946;8.846;2022-08-19T01:35:31;22.90;90.00
33073;DHT22;19432;48.946;8.846;2022-08-19T01:38:03;22.90;90.10
33073;DHT22;19432;48.946;8.846;2022-08-19T01:40:35;22.90;90.40
33073;DHT22;19432;48.946;8.846;2022-08-19T01:43:02;22.80;90.10
33073;DHT22;19432;48.946;8.846;2022-08-19T01:45:30;22.90;90.10
33073;DHT22;19432;48.946;8.846;2022-08-19T01:47:57;22.80;90.10
33073;DHT22;19432;48.946;8.846;2022-08-19T01:50:22;22.90;90.10
33073;DHT22;19432;48.946;8.846;2022-08-19T01:52:48;22.90;90.10
33073;DHT22;19432;48.946;8.846;2022-08-19T01:55:17;22.80;90.10
33073;DHT22;19432;48.946;8.846;2022-08-19T01:57:46;22.80;90.10
33073;DHT22;19432;48.946;8.846;2022-08-19T02:00:17;22.80;90.10
33073;DHT22;19432;48.946;8.846;2022-08-19T02:02:43;22.80;90.10
33073;DHT22;19432;48.946;8.846;2022-08-19T02:05:09;22.80;90.10
33073;DHT22;19432;48.946;8.846;2022-08-19T02:07:36;22.80;90.10
33073;DHT22;19432;48.946;8.846;2022-08-19T02:10:08;22.80;90.20
33073;DHT22;19432;48.946;8.846;2022-08-19T02:12:34;22.80;90.20
33073;DHT22;19432;48.946;8.846;2022-08-19T02:15:00;22.80;90.20
33073;DHT22;19432;48.946;8.846;2022-08-19T02:17:28;22.80;90.20
33073;DHT22;19432;48.946;8.846;2022-08-19T02:19:57;22.80;90.20
33073;DHT22;19432;48.946;8.846;2022-08-19T02:22:24;22.70;90.10
33073;DHT22;19432;48.946;8.846;2022-08-19T02:24:51;22.70;90.20
33073;DHT22;19432;48.946;8.846;2022-08-19T02:27:17;22.80;90.30
33073;DHT22;19432;48.946;8.846;2022-08-19T02:29:43;22.70;90.30
33073;DHT22;19432;48.946;8.846;2022-08-19T02:32:08;22.70;90.40
33073;DHT22;19432;48.946;8.846;2022-08-19T02:34:34;22.70;90.40
33073;DHT22;19432;48.946;8.846;2022-08-19T02:37:00;22.70;90.70
33073;DHT22;19432;48.946;8.846;2022-08-19T02:39:25;22.70;90.50
33073;DHT22;19432;48.946;8.846;2022-08-19T02:41:51;22.70;90.50
33073;DHT22;19432;48.946;8.846;2022-08-19T02:44:18;22.60;90.50
33073;DHT22;19432;48.946;8.846;2022-08-19T02:46:45;22.60;90.50
33073;DHT22;19432;48.946;8.846;2022-08-19T02:49:11;22.60;90.60
33073;DHT22;19432;48.946;8.846;2022-08-19T02:51:44;22.60;90.60
33073;DHT22;19432;48.946;8.846;2022-08-19T02:54:12;22.60;90.60
33073;DHT22;19432;48.946;8.846;2022-08-19T02:56:40;22.60;91.00
33073;DHT22;19432;48.946;8.846;2022-08-19T02:59:07;22.50;90.60
33073;DHT22;19432;48.946;8.846;2022-08-19T03:01:37;22.50;90.70
33073;DHT22;19432;48.946;8.846;2022-08-19T03:04:06;22.50;90.70
33073;DHT22;19432;48.946;8.846;2022-08-19T03:06:32;22.50;90.70
33073;DHT22;19432;48.946;8.846;2022-08-19T03:09:01;22.50;90.80
33073;DHT22;19432;48.946;8.846;2022-08-19T03:11:31;22.40;90.80
33073;DHT22;19432;48.946;8.846;2022-08-19T03:13:57;22.40;90.80
33073;DHT22;19432;48.946;8.846;2022-08-19T03:16:25;22.40;90.80
33073;DHT22;19432;48.946;8.846;2022-08-19T03:18:52;22.40;90.80
33073;DHT22;19432;48.946;8.846;2022-08-19T03:21:20;22.40;90.90
33073;DHT22;19432;48.946;8.846;2022-08-19T03:23:47;22.40;90.90
33073;DHT22;19432;48.946;8.846;2022-08-19T03:26:13;22.40;90.90
33073;DHT22;19432;48.946;8.846;2022-08-19T03:28:41;22.40;90.90
33073;DHT22;19432;48.946;8.846;2022-08-19T03:31:11;22.40;91.00
33073;DHT22;19432;48.946;8.846;2022-08-19T03:33:37;22.40;91.00
33073;DHT22;19432;48.946;8.846;2022-08-19T03:36:14;22.40;91.00
33073;DHT22;19432;48.946;8.846;2022-08-19T03:38:48;22.30;91.00
33073;DHT22;19432;48.946;8.846;2022-08-19T03:41:19;22.30;91.10
33073;DHT22;19432;48.946;8.846;2022-08-19T03:43:46;22.30;91.20
33073;DHT22;19432;48.946;8.846;2022-08-19T03:46:20;22.30;91.20
33073;DHT22;19432;48.946;8.846;2022-08-19T03:48:47;22.30;91.20
33073;DHT22;19432;48.946;8.846;2022-08-19T03:51:26;22.30;91.20
33073;DHT22;19432;48.946;8.846;2022-08-19T03:53:53;22.30;91.20
33073;DHT22;19432;48.946;8.846;2022-08-19T03:56:19;22.30;91.20
33073;DHT22;19432;48.946;8.846;2022-08-19T03:58:45;22.30;91.20
33073;DHT22;19432;48.946;8.846;2022-08-19T04:01:17;22.30;91.20
33073;DHT22;19432;48.946;8.846;2022-08-19T04:03:43;22.20;91.20
33073;DHT22;19432;48.946;8.846;2022-08-19T04:06:15;22.20;91.30
33073;DHT22;19432;48.946;8.846;2022-08-19T04:08:43;22.20;91.30
33073;DHT22;19432;48.946;8.846;2022-08-19T04:11:10;22.20;91.40
33073;DHT22;19432;48.946;8.846;2022-08-19T04:13:37;22.20;91.40
33073;DHT22;19432;48.946;8.846;2022-08-19T04:16:04;22.20;91.50
33073;DHT22;19432;48.946;8.846;2022-08-19T04:18:30;22.20;91.50
33073;DHT22;19432;48.946;8.846;2022-08-19T04:20:56;22.20;91.60
33073;DHT22;19432;48.946;8.846;2022-08-19T04:23:22;22.20;91.70
33073;DHT22;19432;48.946;8.846;2022-08-19T04:25:48;22.20;91.70
33073;DHT22;19432;48.946;8.846;2022-08-19T04:28:14;22.20;91.70
33073;DHT22;19432;48.946;8.846;2022-08-19T04:30:43;22.10;91.80
33073;DHT22;19432;48.946;8.846;2022-08-19T04:33:10;22.10;91.80
33073;DHT22;19432;48.946;8.846;2022-08-19T04:35:38;22.10;91.80
33073;DHT22;19432;48.946;8.846;2022-08-19T04:38:04;22.10;91.90
33073;DHT22;19432;48.946;8.846;2022-08-19T04:40:29;22.10;91.90
33073;DHT22;19432;48.946;8.846;2022-08-19T04:43:14;22.10;92.00
33073;DHT22;19432;48.946;8.846;2022-08-19T04:45:40;22.10;92.00
33073;DHT22;19432;48.946;8.846;2022-08-19T04:48:05;22.10;92.10
33073;DHT22;19432;48.946;8.846;2022-08-19T04:50:31;22.10;92.20
33073;DHT22;19432;48.946;8.846;2022-08-19T04:52:57;22.10;92.30
33073;DHT22;19432;48.946;8.846;2022-08-19T04:55:23;22.10;92.30
33073;DHT22;19432;48.946;8.846;2022-08-19T04:57:50;22.10;92.40
33073;DHT22;19432;48.946;8.846;2022-08-19T05:00:16;22.10;92.50
33073;DHT22;19432;48.946;8.846;2022-08-19T05:02:42;22.10;92.40
33073;DHT22;19432;48.946;8.846;2022-08-19T05:05:08;22.10;92.50
33073;DHT22;19432;48.946;8.846;2022-08-19T05:07:34;22.10;92.50
33073;DHT22;19432;48.946;8.846;2022-08-19T05:10:00;22.10;92.50
33073;DHT22;19432;48.946;8.846;2022-08-19T05:12:26;22.10;92.50
33073;DHT22;19432;48.946;8.846;2022-08-19T05:14:53;22.10;92.50
33073;DHT22;19432;48.946;8.846;2022-08-19T05:17:19;22.10;92.50
33073;DHT22;19432;48.946;8.846;2022-08-19T05:19:45;22.20;92.50
33073;DHT22;19432;48.946;8.846;2022-08-19T05:22:29;22.20;92.50
33073;DHT22;19432;48.946;8.846;2022-08-19T05:24:58;22.20;92.50
33073;DHT22;19432;48.946;8.846;2022-08-19T05:27:24;22.20;92.40
33073;DHT22;19432;48.946;8.846;2022-08-19T05:29:50;22.20;92.50
33073;DHT22;19432;48.946;8.846;2022-08-19T05:32:15;22.20;92.50
33073;DHT22;19432;48.946;8.846;2022-08-19T05:34:41;22.20;92.50
33073;DHT22;19432;48.946;8.846;2022-08-19T05:37:07;22.20;92.50
33073;DHT22;19432;48.946;8.846;2022-08-19T05:39:35;22.20;92.30
33073;DHT22;19432;48.946;8.846;2022-08-19T05:42:04;22.20;92.40
33073;DHT22;19432;48.946;8.846;2022-08-19T05:44:34;22.20;92.50
33073;DHT22;19432;48.946;8.846;2022-08-19T05:47:02;22.20;92.50
33073;DHT22;19432;48.946;8.846;2022-08-19T05:49:29;22.20;92.40
33073;DHT22;19432;48.946;8.846;2022-08-19T05:51:55;22.20;92.40
33073;DHT22;19432;48.946;8.846;2022-08-19T05:54:22;22.20;92.40
33073;DHT22;19432;48.946;8.846;2022-08-19T05:56:49;22.20;92.40
33073;DHT22;19432;48.946;8.846;2022-08-19T05:59:16;22.20;92.40
33073;DHT22;19432;48.946;8.846;2022-08-19T06:01:45;22.20;92.20
33073;DHT22;19432;48.946;8.846;2022-08-19T06:04:12;22.30;92.20
33073;DHT22;19432;48.946;8.846;2022-08-19T06:06:39;22.30;92.10
33073;DHT22;19432;48.946;8.846;2022-08-19T06:09:06;22.30;92.10
33073;DHT22;19432;48.946;8.846;2022-08-19T06:14:07;22.40;92.10
33073;DHT22;19432;48.946;8.846;2022-08-19T06:16:40;22.40;92.10
33073;DHT22;19432;48.946;8.846;2022-08-19T06:19:12;22.40;92.00
33073;DHT22;19432;48.946;8.846;2022-08-19T06:21:41;22.40;92.10
33073;DHT22;19432;48.946;8.846;2022-08-19T06:24:09;22.40;92.10
33073;DHT22;19432;48.946;8.846;2022-08-19T06:26:37;22.40;92.40
33073;DHT22;19432;48.946;8.846;2022-08-19T06:29:05;22.40;92.10
33073;DHT22;19432;48.946;8.846;2022-08-19T06:31:32;22.50;92.00
33073;DHT22;19432;48.946;8.846;2022-08-19T06:34:03;22.50;92.00
33073;DHT22;19432;48.946;8.846;2022-08-19T06:36:35;22.50;92.00
33073;DHT22;19432;48.946;8.846;2022-08-19T06:39:10;22.50;92.10
33073;DHT22;19432;48.946;8.846;2022-08-19T06:41:49;22.50;92.00
33073;DHT22;19432;48.946;8.846;2022-08-19T06:44:17;22.50;92.00
33073;DHT22;19432;48.946;8.846;2022-08-19T06:46:43;22.50;92.00
33073;DHT22;19432;48.946;8.846;2022-08-19T06:49:09;22.50;92.00
33073;DHT22;19432;48.946;8.846;2022-08-19T06:51:43;22.50;92.00
33073;DHT22;19432;48.946;8.846;2022-08-19T06:54:09;22.50;91.90
33073;DHT22;19432;48.946;8.846;2022-08-19T06:56:36;22.50;91.80
33073;DHT22;19432;48.946;8.846;2022-08-19T06:59:26;22.50;91.70
33073;DHT22;19432;48.946;8.846;2022-08-19T07:01:54;22.60;91.70
33073;DHT22;19432;48.946;8.846;2022-08-19T07:04:22;22.60;91.60
33073;DHT22;19432;48.946;8.846;2022-08-19T07:06:49;22.60;91.60
33073;DHT22;19432;48.946;8.846;2022-08-19T07:09:16;22.60;91.50
33073;DHT22;19432;48.946;8.846;2022-08-19T07:11:48;22.60;91.40
33073;DHT22;19432;48.946;8.846;2022-08-19T07:14:15;22.60;91.30
33073;DHT22;19432;48.946;8.846;2022-08-19T07:16:44;22.60;91.30
33073;DHT22;19432;48.946;8.846;2022-08-19T07:19:11;22.60;91.30
33073;DHT22;19432;48.946;8.846;2022-08-19T07:21:37;22.60;91.20
33073;DHT22;19432;48.946;8.846;2022-08-19T07:24:04;22.60;91.20
33073;DHT22;19432;48.946;8.846;2022-08-19T07:26:32;22.70;91.20
33073;DHT22;19432;48.946;8.846;2022-08-19T07:28:58;22.70;91.10
33073;DHT22;19432;48.946;8.846;2022-08-19T07:31:26;22.70;91.30
33073;DHT22;19432;48.946;8.846;2022-08-19T07:33:54;22.70;91.10
33073;DHT22;19432;48.946;8.846;2022-08-19T07:36:25;22.80;91.00
33073;DHT22;19432;48.946;8.846;2022-08-19T07:38:56;22.80;90.90
33073;DHT22;19432;48.946;8.846;2022-08-19T07:41:24;22.80;90.90
33073;DHT22;19432;48.946;8.846;2022-08-19T07:43:51;22.80;90.80
33073;DHT22;19432;48.946;8.846;2022-08-19T07:46:18;22.90;90.80
33073;DHT22;19432;48.946;8.846;2022-08-19T07:48:47;22.90;90.80
33073;DHT22;19432;48.946;8.846;2022-08-19T07:51:16;23.00;90.70
33073;DHT22;19432;48.946;8.846;2022-08-19T07:53:42;23.00;90.70
33073;DHT22;19432;48.946;8.846;2022-08-19T07:56:11;23.00;90.60
33073;DHT22;19432;48.946;8.846;2022-08-19T07:58:40;23.00;90.60
33073;DHT22;19432;48.946;8.846;2022-08-19T08:01:08;23.10;90.60
33073;DHT22;19432;48.946;8.846;2022-08-19T08:03:36;23.10;90.60
33073;DHT22;19432;48.946;8.846;2022-08-19T08:06:21;23.20;90.50
33073;DHT22;19432;48.946;8.846;2022-08-19T08:09:08;23.30;90.40
33073;DHT22;19432;48.946;8.846;2022-08-19T08:11:50;23.40;90.30
33073;DHT22;19432;48.946;8.846;2022-08-19T08:14:21;23.40;90.20
33073;DHT22;19432;48.946;8.846;2022-08-19T08:16:48;23.50;90.20
33073;DHT22;19432;48.946;8.846;2022-08-19T08:19:17;23.50;90.10
33073;DHT22;19432;48.946;8.846;2022-08-19T08:21:43;23.50;90.10
33073;DHT22;19432;48.946;8.846;2022-08-19T08:24:10;23.50;90.00
33073;DHT22;19432;48.946;8.846;2022-08-19T08:26:35;23.50;90.00
33073;DHT22;19432;48.946;8.846;2022-08-19T08:29:01;23.50;90.00
33073;DHT22;19432;48.946;8.846;2022-08-19T08:31:27;23.50;90.00
33073;DHT22;19432;48.946;8.846;2022-08-19T08:33:53;23.50;90.00
33073;DHT22;19432;48.946;8.846;2022-08-19T08:36:19;23.60;90.10
33073;DHT22;19432;48.946;8.846;2022-08-19T08:38:45;23.60;90.00
33073;DHT22;19432;48.946;8.846;2022-08-19T08:41:34;23.70;90.20
33073;DHT22;19432;48.946;8.846;2022-08-19T08:44:03;23.80;90.10
33073;DHT22;19432;48.946;8.846;2022-08-19T08:46:46;23.80;90.00
33073;DHT22;19432;48.946;8.846;2022-08-19T08:49:41;23.90;89.90
33073;DHT22;19432;48.946;8.846;2022-08-19T08:52:06;23.90;90.00
33073;DHT22;19432;48.946;8.846;2022-08-19T08:54:43;24.00;89.70
33073;DHT22;19432;48.946;8.846;2022-08-19T08:57:27;24.00;89.60
33073;DHT22;19432;48.946;8.846;2022-08-19T08:59:54;24.00;89.40
33073;DHT22;19432;48.946;8.846;2022-08-19T09:02:21;24.00;89.40
33073;DHT22;19432;48.946;8.846;2022-08-19T09:04:47;24.00;89.50
33073;DHT22;19432;48.946;8.846;2022-08-19T09:09:45;24.10;89.10
33073;DHT22;19432;48.946;8.846;2022-08-19T09:15:06;24.20;88.90
33073;DHT22;19432;48.946;8.846;2022-08-19T09:17:33;24.20;88.60
33073;DHT22;19432;48.946;8.846;2022-08-19T09:22:40;24.20;88.40
33073;DHT22;19432;48.946;8.846;2022-08-19T09:25:08;24.20;88.50
33073;DHT22;19432;48.946;8.846;2022-08-19T09:27:35;24.30;88.40
33073;DHT22;19432;48.946;8.846;2022-08-19T09:30:04;24.40;88.20
33073;DHT22;19432;48.946;8.846;2022-08-19T09:32:30;24.50;88.40
33073;DHT22;19432;48.946;8.846;2022-08-19T09:34:56;24.50;88.00
33073;DHT22;19432;48.946;8.846;2022-08-19T09:37:24;24.60;87.80
33073;DHT22;19432;48.946;8.846;2022-08-19T09:39:50;24.60;87.40
33073;DHT22;19432;48.946;8.846;2022-08-19T09:42:16;24.60;87.00
33073;DHT22;19432;48.946;8.846;2022-08-19T09:44:42;24.50;86.80
33073;DHT22;19432;48.946;8.846;2022-08-19T09:47:10;24.60;86.90
33073;DHT22;19432;48.946;8.846;2022-08-19T09:49:37;24.50;86.40
33073;DHT22;19432;48.946;8.846;2022-08-19T09:52:04;24.50;86.30
33073;DHT22;19432;48.946;8.846;2022-08-19T09:54:30;24.50;86.30
33073;DHT22;19432;48.946;8.846;2022-08-19T09:56:58;24.60;86.20
33073;DHT22;19432;48.946;8.846;2022-08-19T09:59:25;24.60;86.40
33073;DHT22;19432;48.946;8.846;2022-08-19T10:01:51;24.70;86.20
33073;DHT22;19432;48.946;8.846;2022-08-19T10:04:17;24.80;86.00
33073;DHT22;19432;48.946;8.846;2022-08-19T10:06:43;24.80;85.80
33073;DHT22;19432;48.946;8.846;2022-08-19T10:09:10;24.90;85.40
33073;DHT22;19432;48.946;8.846;2022-08-19T10:11:39;25.00;85.00
33073;DHT22;19432;48.946;8.846;2022-08-19T10:14:06;25.10;84.80
33073;DHT22;19432;48.946;8.846;2022-08-19T10:16:32;25.20;84.50
33073;DHT22;19432;48.946;8.846;2022-08-19T10:18:58;25.40;84.60
33073;DHT22;19432;48.946;8.846;2022-08-19T10:21:28;25.50;84.50
33073;DHT22;19432;48.946;8.846;2022-08-19T10:23:56;25.60;84.00
33073;DHT22;19432;48.946;8.846;2022-08-19T10:26:28;25.70;83.70
33073;DHT22;19432;48.946;8.846;2022-08-19T10:28:55;25.90;83.50
33073;DHT22;19432;48.946;8.846;2022-08-19T10:31:27;25.90;82.10
33073;DHT22;19432;48.946;8.846;2022-08-19T10:33:53;25.90;81.60
33073;DHT22;19432;48.946;8.846;2022-08-19T10:36:25;26.00;81.50
33073;DHT22;19432;48.946;8.846;2022-08-19T10:38:53;26.10;81.10
33073;DHT22;19432;48.946;8.846;2022-08-19T10:41:24;26.30;80.10
33073;DHT22;19432;48.946;8.846;2022-08-19T10:43:59;26.50;79.50
33073;DHT22;19432;48.946;8.846;2022-08-19T10:46:27;26.70;78.60
33073;DHT22;19432;48.946;8.846;2022-08-19T10:48:54;26.80;78.70
33073;DHT22;19432;48.946;8.846;2022-08-19T10:51:20;26.80;77.90
33073;DHT22;19432;48.946;8.846;2022-08-19T10:54:04;26.80;78.10
33073;DHT22;19432;48.946;8.846;2022-08-19T10:56:30;26.80;77.70
33073;DHT22;19432;48.946;8.846;2022-08-19T10:59:15;26.80;77.50
33073;DHT22;19432;48.946;8.846;2022-08-19T11:01:44;26.80;77.50
33073;DHT22;19432;48.946;8.846;2022-08-19T11:04:11;26.80;77.60
33073;DHT22;19432;48.946;8.846;2022-08-19T11:06:42;26.80;76.90
33073;DHT22;19432;48.946;8.846;2022-08-19T11:09:09;26.80;76.70
33073;DHT22;19432;48.946;8.846;2022-08-19T11:11:37;26.80;75.20
33073;DHT22;19432;48.946;8.846;2022-08-19T11:14:17;26.80;75.40
33073;DHT22;19432;48.946;8.846;2022-08-19T11:16:49;26.90;75.20
33073;DHT22;19432;48.946;8.846;2022-08-19T11:19:16;27.00;75.30
33073;DHT22;19432;48.946;8.846;2022-08-19T11:21:45;27.10;74.90
33073;DHT22;19432;48.946;8.846;2022-08-19T11:24:19;27.10;75.00
33073;DHT22;19432;48.946;8.846;2022-08-19T11:26:46;27.10;74.40
33073;DHT22;19432;48.946;8.846;2022-08-19T11:29:15;27.30;74.40
33073;DHT22;19432;48.946;8.846;2022-08-19T11:31:44;27.40;74.10
33073;DHT22;19432;48.946;8.846;2022-08-19T11:34:13;27.60;73.80
33073;DHT22;19432;48.946;8.846;2022-08-19T11:36:41;27.60;73.40
33073;DHT22;19432;48.946;8.846;2022-08-19T11:39:09;27.60;72.40
33073;DHT22;19432;48.946;8.846;2022-08-19T11:41:35;27.60;72.10
33073;DHT22;19432;48.946;8.846;2022-08-19T11:44:01;27.70;71.80
33073;DHT22;19432;48.946;8.846;2022-08-19T11:46:29;27.80;71.00
33073;DHT22;19432;48.946;8.846;2022-08-19T11:48:58;27.90;70.60
33073;DHT22;19432;48.946;8.846;2022-08-19T11:51:26;27.90;70.50
33073;DHT22;19432;48.946;8.846;2022-08-19T11:53:54;27.90;70.80
33073;DHT22;19432;48.946;8.846;2022-08-19T11:56:20;28.00;70.80
33073;DHT22;19432;48.946;8.846;2022-08-19T11:58:47;28.10;70.40
33073;DHT22;19432;48.946;8.846;2022-08-19T12:01:15;28.20;70.30
33073;DHT22;19432;48.946;8.846;2022-08-19T12:03:43;28.20;69.80
33073;DHT22;19432;48.946;8.846;2022-08-19T12:06:12;28.20;69.60
33073;DHT22;19432;48.946;8.846;2022-08-19T12:08:41;28.20;69.40
33073;DHT22;19432;48.946;8.846;2022-08-19T12:11:07;28.10;68.70
33073;DHT22;19432;48.946;8.846;2022-08-19T12:13:34;27.90;68.20
33073;DHT22;19432;48.946;8.846;2022-08-19T12:16:00;27.80;68.30
33073;DHT22;19432;48.946;8.846;2022-08-19T12:18:32;27.70;68.30
33073;DHT22;19432;48.946;8.846;2022-08-19T12:20:57;27.70;68.50
33073;DHT22;19432;48.946;8.846;2022-08-19T12:23:26;27.70;68.60
33073;DHT22;19432;48.946;8.846;2022-08-19T12:25:52;27.70;68.40
33073;DHT22;19432;48.946;8.846;2022-08-19T12:28:19;27.80;68.50
33073;DHT22;19432;48.946;8.846;2022-08-19T12:30:45;27.80;68.20
33073;DHT22;19432;48.946;8.846;2022-08-19T12:33:11;27.90;68.00
33073;DHT22;19432;48.946;8.846;2022-08-19T12:35:43;28.00;67.70
33073;DHT22;19432;48.946;8.846;2022-08-19T12:38:13;28.20;67.80
33073;DHT22;19432;48.946;8.846;2022-08-19T12:40:40;28.40;67.80
33073;DHT22;19432;48.946;8.846;2022-08-19T12:43:07;28.60;67.20
33073;DHT22;19432;48.946;8.846;2022-08-19T12:45:32;28.70;65.80
33073;DHT22;19432;48.946;8.846;2022-08-19T12:47:58;28.80;65.60
33073;DHT22;19432;48.946;8.846;2022-08-19T12:50:24;28.80;65.60
33073;DHT22;19432;48.946;8.846;2022-08-19T12:52:50;28.80;65.40
33073;DHT22;19432;48.946;8.846;2022-08-19T12:55:16;28.80;65.60
33073;DHT22;19432;48.946;8.846;2022-08-19T12:57:44;28.90;64.90
33073;DHT22;19432;48.946;8.846;2022-08-19T13:00:13;29.10;63.90
33073;DHT22;19432;48.946;8.846;2022-08-19T13:02:42;29.20;63.50
33073;DHT22;19432;48.946;8.846;2022-08-19T13:05:12;29.40;62.90
33073;DHT22;19432;48.946;8.846;2022-08-19T13:07:40;29.50;62.90
33073;DHT22;19432;48.946;8.846;2022-08-19T13:10:07;29.60;62.20
33073;DHT22;19432;48.946;8.846;2022-08-19T13:12:33;29.70;62.00
33073;DHT22;19432;48.946;8.846;2022-08-19T13:14:59;29.70;61.60
33073;DHT22;19432;48.946;8.846;2022-08-19T13:17:25;29.70;60.90
33073;DHT22;19432;48.946;8.846;2022-08-19T13:19:50;29.60;61.10
33073;DHT22;19432;48.946;8.846;2022-08-19T13:22:16;29.40;60.60
33073;DHT22;19432;48.946;8.846;2022-08-19T13:24:42;29.30;61.30
33073;DHT22;19432;48.946;8.846;2022-08-19T13:27:08;29.20;62.20
33073;DHT22;19432;48.946;8.846;2022-08-19T13:29:34;29.00;61.00
33073;DHT22;19432;48.946;8.846;2022-08-19T13:32:18;28.90;61.10
33073;DHT22;19432;48.946;8.846;2022-08-19T13:35:03;28.70;60.10
33073;DHT22;19432;48.946;8.846;2022-08-19T13:37:29;28.50;60.20
33073;DHT22;19432;48.946;8.846;2022-08-19T13:40:18;28.30;59.50
33073;DHT22;19432;48.946;8.846;2022-08-19T13:42:46;28.20;59.80
33073;DHT22;19432;48.946;8.846;2022-08-19T13:45:15;28.10;59.70
33073;DHT22;19432;48.946;8.846;2022-08-19T13:47:41;28.10;59.90
33073;DHT22;19432;48.946;8.846;2022-08-19T13:50:12;28.10;59.50
33073;DHT22;19432;48.946;8.846;2022-08-19T13:52:39;28.10;59.90
33073;DHT22;19432;48.946;8.846;2022-08-19T13:55:06;28.00;59.40
33073;DHT22;19432;48.946;8.846;2022-08-19T13:57:32;28.00;59.60
33073;DHT22;19432;48.946;8.846;2022-08-19T13:59:58;27.90;59.40
33073;DHT22;19432;48.946;8.846;2022-08-19T14:02:24;27.90;59.40
33073;DHT22;19432;48.946;8.846;2022-08-19T14:04:50;27.90;59.70
33073;DHT22;19432;48.946;8.846;2022-08-19T14:07:16;27.90;60.30
33073;DHT22;19432;48.946;8.846;2022-08-19T14:09:41;27.80;60.70
33073;DHT22;19432;48.946;8.846;2022-08-19T14:12:07;27.80;61.00
33073;DHT22;19432;48.946;8.846;2022-08-19T14:14:37;27.80;62.10
33073;DHT22;19432;48.946;8.846;2022-08-19T14:17:06;27.80;62.60
33073;DHT22;19432;48.946;8.846;2022-08-19T14:19:32;27.80;62.50
33073;DHT22;19432;48.946;8.846;2022-08-19T14:21:57;27.90;62.70
33073;DHT22;19432;48.946;8.846;2022-08-19T14:24:23;27.90;62.20
33073;DHT22;19432;48.946;8.846;2022-08-19T14:26:48;27.90;61.90
33073;DHT22;19432;48.946;8.846;2022-08-19T14:29:14;27.90;61.90
33073;DHT22;19432;48.946;8.846;2022-08-19T14:31:41;27.90;61.90
33073;DHT22;19432;48.946;8.846;2022-08-19T14:34:08;28.00;61.80
33073;DHT22;19432;48.946;8.846;2022-08-19T14:36:36;28.10;60.80
33073;DHT22;19432;48.946;8.846;2022-08-19T14:39:02;28.10;60.40
33073;DHT22;19432;48.946;8.846;2022-08-19T14:41:28;28.10;60.10
33073;DHT22;19432;48.946;8.846;2022-08-19T14:43:56;28.20;59.80
33073;DHT22;19432;48.946;8.846;2022-08-19T14:46:26;28.30;58.90
33073;DHT22;19432;48.946;8.846;2022-08-19T14:48:53;28.30;59.30
33073;DHT22;19432;48.946;8.846;2022-08-19T14:51:20;28.40;59.20
33073;DHT22;19432;48.946;8.846;2022-08-19T14:53:45;28.50;59.40
33073;DHT22;19432;48.946;8.846;2022-08-19T14:56:19;28.50;59.40
33073;DHT22;19432;48.946;8.846;2022-08-19T14:58:45;28.60;59.60
33073;DHT22;19432;48.946;8.846;2022-08-19T15:01:12;28.70;59.70
33073;DHT22;19432;48.946;8.846;2022-08-19T15:03:38;28.70;59.50
33073;DHT22;19432;48.946;8.846;2022-08-19T15:06:06;28.80;59.30
33073;DHT22;19432;48.946;8.846;2022-08-19T15:08:34;28.80;59.20
33073;DHT22;19432;48.946;8.846;2022-08-19T15:11:01;29.00;59.50
33073;DHT22;19432;48.946;8.846;2022-08-19T15:13:28;29.00;58.90
33073;DHT22;19432;48.946;8.846;2022-08-19T15:15:54;29.10;58.70
33073;DHT22;19432;48.946;8.846;2022-08-19T15:18:20;29.10;58.30
33073;DHT22;19432;48.946;8.846;2022-08-19T15:20:47;29.10;58.20
33073;DHT22;19432;48.946;8.846;2022-08-19T15:23:14;29.00;58.30
33073;DHT22;19432;48.946;8.846;2022-08-19T15:25:40;29.00;58.30
33073;DHT22;19432;48.946;8.846;2022-08-19T15:28:07;28.90;58.50
33073;DHT22;19432;48.946;8.846;2022-08-19T15:30:37;28.90;58.30
33073;DHT22;19432;48.946;8.846;2022-08-19T15:33:03;28.90;57.60
33073;DHT22;19432;48.946;8.846;2022-08-19T15:35:29;28.80;57.80
33073;DHT22;19432;48.946;8.846;2022-08-19T15:37:54;28.70;57.30
33073;DHT22;19432;48.946;8.846;2022-08-19T15:40:22;28.70;57.50
33073;DHT22;19432;48.946;8.846;2022-08-19T15:42:48;28.60;57.40
33073;DHT22;19432;48.946;8.846;2022-08-19T15:45:15;28.50;57.60
33073;DHT22;19432;48.946;8.846;2022-08-19T15:47:41;28.50;57.50